sensor_id;sensor_type;location;lat;lon;timestamp;pressure;altitude;pressure_sealevel;temperature;humidity
56600;BME280;51832;48.152;11.530;2023-05-23T00:04:55;95189.16;;;21.03;67.65
56600;BME280;51832;48.152;11.530;2023-05-23T00:09:57;95178.09;;;20.77;68.78
56600;BME280;51832;48.152;11.530;2023-05-23T00:14:58;95175.78;;;20.70;68.71
56600;BME280;51832;48.152;11.530;2023-05-23T00:19:58;95176.16;;;20.64;68.80
56600;BME280;51832;48.152;11.530;2023-05-23T00:24:59;95182.94;;;20.56;68.99
56600;BME280;51832;48.152;11.530;2023-05-23T00:30:01;95179.91;;;20.06;70.59
56600;BME280;51832;48.152;11.530;2023-05-23T00:35:02;95182.28;;;20.64;68.52
56600;BME280;51832;48.152;11.530;2023-05-23T00:40:03;95190.44;;;20.35;68.96
56600;BME280;51832;48.152;11.530;2023-05-23T00:45:04;95182.50;;;20.30;69.31
56600;BME280;51832;48.152;11.530;2023-05-23T00:50:10;95178.69;;;20.55;68.37
56600;BME280;51832;48.152;11.530;2023-05-23T00:55:11;95192.16;;;20.50;68.26
56600;BME280;51832;48.152;11.530;2023-05-23T01:00:13;95189.16;;;20.33;69.23
56600;BME280;51832;48.152;11.530;2023-05-23T01:05:15;95192.09;;;20.31;69.13
56600;BME280;51832;48.152;11.530;2023-05-23T01:10:26;95183.16;;;20.60;67.69
56600;BME280;51832;48.152;11.530;2023-05-23T01:15:35;95190.75;;;20.71;67.15
56600;BME280;51832;48.152;11.530;2023-05-23T01:20:40;95195.91;;;20.81;66.92
56600;BME280;51832;48.152;11.530;2023-05-23T01:31:01;95198.31;;;20.64;67.77
56600;BME280;51832;48.152;11.530;2023-05-23T01:36:03;95207.28;;;20.54;67.40
56600;BME280;51832;48.152;11.530;2023-05-23T01:41:03;95200.66;;;21.03;66.29
56600;BME280;51832;48.152;11.530;2023-05-23T01:46:05;95201.06;;;21.43;64.25
56600;BME280;51832;48.152;11.530;2023-05-23T01:51:06;95210.06;;;21.47;64.99
56600;BME280;51832;48.152;11.530;2023-05-23T01:56:07;95216.34;;;21.56;63.85
56600;BME280;51832;48.152;11.530;2023-05-23T02:01:08;95228.75;;;21.19;64.92
56600;BME280;51832;48.152;11.530;2023-05-23T02:06:09;95221.53;;;21.34;64.98
56600;BME280;51832;48.152;11.530;2023-05-23T02:11:10;95229.13;;;21.45;64.04
56600;BME280;51832;48.152;11.530;2023-05-23T02:16:10;95225.63;;;20.80;66.71
56600;BME280;51832;48.152;11.530;2023-05-23T02:21:13;95219.06;;;20.72;66.79
56600;BME280;51832;48.152;11.530;2023-05-23T02:26:13;95222.75;;;20.76;66.73
56600;BME280;51832;48.152;11.530;2023-05-23T02:31:13;95228.78;;;20.07;69.60
56600;BME280;51832;48.152;11.530;2023-05-23T02:36:14;95227.69;;;20.27;69.13
56600;BME280;51832;48.152;11.530;2023-05-23T02:41:14;95234.47;;;20.43;69.46
56600;BME280;51832;48.152;11.530;2023-05-23T02:46:14;95241.66;;;20.00;70.56
56600;BME280;51832;48.152;11.530;2023-05-23T02:51:15;95243.22;;;20.24;69.54
56600;BME280;51832;48.152;11.530;2023-05-23T02:56:15;95239.03;;;20.18;70.02
56600;BME280;51832;48.152;11.530;2023-05-23T03:01:16;95238.31;;;20.32;69.82
56600;BME280;51832;48.152;11.530;2023-05-23T03:06:17;95246.78;;;19.72;72.45
56600;BME280;51832;48.152;11.530;2023-05-23T03:11:18;95243.19;;;19.82;72.10
56600;BME280;51832;48.152;11.530;2023-05-23T03:16:18;95232.22;;;19.83;72.28
56600;BME280;51832;48.152;11.530;2023-05-23T03:21:19;95240.75;;;19.62;72.72
56600;BME280;51832;48.152;11.530;2023-05-23T03:26:19;95257.06;;;19.60;73.43
56600;BME280;51832;48.152;11.530;2023-05-23T03:31:21;95240.94;;;19.70;73.00
56600;BME280;51832;48.152;11.530;2023-05-23T03:36:21;95254.78;;;19.43;74.42
56600;BME280;51832;48.152;11.530;2023-05-23T03:41:25;95256.94;;;18.78;76.95
56600;BME280;51832;48.152;11.530;2023-05-23T03:46:26;95251.78;;;19.26;81.52
56600;BME280;51832;48.152;11.530;2023-05-23T03:51:26;95254.16;;;19.57;77.37
56600;BME280;51832;48.152;11.530;2023-05-23T03:56:27;95254.09;;;19.33;75.93
56600;BME280;51832;48.152;11.530;2023-05-23T04:01:27;95259.91;;;19.93;75.31
56600;BME280;51832;48.152;11.530;2023-05-23T04:06:28;95258.81;;;19.70;79.09
56600;BME280;51832;48.152;11.530;2023-05-23T04:11:31;95257.69;;;19.47;75.86
56600;BME280;51832;48.152;11.530;2023-05-23T04:16:32;95254.22;;;19.99;75.61
56600;BME280;51832;48.152;11.530;2023-05-23T04:21:35;95262.50;;;19.98;73.92
56600;BME280;51832;48.152;11.530;2023-05-23T04:26:35;95276.41;;;19.42;75.89
56600;BME280;51832;48.152;11.530;2023-05-23T04:31:36;95289.88;;;19.61;75.29
56600;BME280;51832;48.152;11.530;2023-05-23T04:36:36;95292.38;;;19.52;76.34
56600;BME280;51832;48.152;11.530;2023-05-23T04:41:38;95284.09;;;19.48;76.00
56600;BME280;51832;48.152;11.530;2023-05-23T04:46:38;95287.19;;;19.66;75.64
56600;BME280;51832;48.152;11.530;2023-05-23T04:51:41;95292.00;;;19.87;74.52
56600;BME280;51832;48.152;11.530;2023-05-23T04:56:42;95289.34;;;19.87;75.27
56600;BME280;51832;48.152;11.530;2023-05-23T05:01:42;95300.09;;;20.06;74.44
56600;BME280;51832;48.152;11.530;2023-05-23T05:06:43;95307.91;;;19.98;74.60
56600;BME280;51832;48.152;11.530;2023-05-23T05:11:43;95308.66;;;20.03;74.64
56600;BME280;51832;48.152;11.530;2023-05-23T05:16:44;95308.31;;;20.10;74.75
56600;BME280;51832;48.152;11.530;2023-05-23T05:21:46;95299.13;;;20.64;73.97
56600;BME280;51832;48.152;11.530;2023-05-23T05:26:47;95300.69;;;20.65;73.44
56600;BME280;51832;48.152;11.530;2023-05-23T05:31:47;95310.31;;;20.66;73.79
56600;BME280;51832;48.152;11.530;2023-05-23T05:36:47;95294.72;;;20.54;73.46
56600;BME280;51832;48.152;11.530;2023-05-23T05:41:48;95302.94;;;20.95;73.41
56600;BME280;51832;48.152;11.530;2023-05-23T05:46:48;95313.34;;;20.59;73.80
56600;BME280;51832;48.152;11.530;2023-05-23T05:51:49;95310.47;;;20.55;74.21
56600;BME280;51832;48.152;11.530;2023-05-23T05:56:49;95315.16;;;20.21;75.42
56600;BME280;51832;48.152;11.530;2023-05-23T06:01:51;95314.00;;;20.70;73.97
56600;BME280;51832;48.152;11.530;2023-05-23T06:06:51;95317.19;;;20.72;74.05
56600;BME280;51832;48.152;11.530;2023-05-23T06:11:51;95325.84;;;20.21;76.09
56600;BME280;51832;48.152;11.530;2023-05-23T06:16:52;95328.69;;;20.06;76.78
56600;BME280;51832;48.152;11.530;2023-05-23T06:21:52;95336.75;;;19.72;77.56
56600;BME280;51832;48.152;11.530;2023-05-23T06:26:53;95332.88;;;19.25;79.95
56600;BME280;51832;48.152;11.530;2023-05-23T06:31:53;95325.44;;;20.09;77.47
56600;BME280;51832;48.152;11.530;2023-05-23T06:36:54;95332.25;;;20.20;77.49
56600;BME280;51832;48.152;11.530;2023-05-23T06:41:54;95338.03;;;20.75;75.90
56600;BME280;51832;48.152;11.530;2023-05-23T06:46:55;95332.78;;;20.65;75.97
56600;BME280;51832;48.152;11.530;2023-05-23T06:51:57;95344.03;;;20.19;77.47
56600;BME280;51832;48.152;11.530;2023-05-23T06:56:58;95330.50;;;20.77;76.00
56600;BME280;51832;48.152;11.530;2023-05-23T07:01:58;95343.59;;;20.97;75.17
56600;BME280;51832;48.152;11.530;2023-05-23T07:06:59;95348.69;;;20.56;76.65
56600;BME280;51832;48.152;11.530;2023-05-23T07:11:59;95342.63;;;20.69;76.73
56600;BME280;51832;48.152;11.530;2023-05-23T07:17:00;95357.75;;;20.98;75.19
56600;BME280;51832;48.152;11.530;2023-05-23T07:22:00;95358.97;;;21.05;75.20
56600;BME280;51832;48.152;11.530;2023-05-23T07:27:00;95361.22;;;21.36;74.05
56600;BME280;51832;48.152;11.530;2023-05-23T07:32:01;95371.63;;;21.00;74.78
56600;BME280;51832;48.152;11.530;2023-05-23T07:37:01;95370.00;;;21.04;74.64
56600;BME280;51832;48.152;11.530;2023-05-23T07:42:02;95361.00;;;20.76;75.73
56600;BME280;51832;48.152;11.530;2023-05-23T07:47:03;95364.19;;;20.97;75.08
56600;BME280;51832;48.152;11.530;2023-05-23T07:52:04;95363.16;;;20.92;75.39
56600;BME280;51832;48.152;11.530;2023-05-23T07:57:06;95376.44;;;20.60;76.25
56600;BME280;51832;48.152;11.530;2023-05-23T08:02:06;95358.91;;;21.10;74.53
56600;BME280;51832;48.152;11.530;2023-05-23T08:07:06;95386.44;;;20.92;75.44
56600;BME280;51832;48.152;11.530;2023-05-23T08:12:08;95376.59;;;21.30;74.27
56600;BME280;51832;48.152;11.530;2023-05-23T08:17:11;95382.59;;;20.79;75.13
56600;BME280;51832;48.152;11.530;2023-05-23T08:22:11;95370.47;;;20.87;73.98
56600;BME280;51832;48.152;11.530;2023-05-23T08:27:11;95386.38;;;20.54;76.00
56600;BME280;51832;48.152;11.530;2023-05-23T08:32:12;95390.75;;;20.69;75.19
56600;BME280;51832;48.152;11.530;2023-05-23T08:37:12;95398.78;;;20.69;75.96
56600;BME280;51832;48.152;11.530;2023-05-23T08:42:13;95392.50;;;20.79;75.15
56600;BME280;51832;48.152;11.530;2023-05-23T08:47:15;95394.69;;;20.96;74.79
56600;BME280;51832;48.152;11.530;2023-05-23T08:52:17;95400.66;;;20.69;75.33
56600;BME280;51832;48.152;11.530;2023-05-23T08:57:21;95397.88;;;20.98;74.30
56600;BME280;51832;48.152;11.530;2023-05-23T09:02:22;95395.28;;;21.11;74.28
56600;BME280;51832;48.152;11.530;2023-05-23T09:07:23;95398.03;;;20.87;74.30
56600;BME280;51832;48.152;11.530;2023-05-23T09:12:24;95396.31;;;21.15;73.84
56600;BME280;51832;48.152;11.530;2023-05-23T09:17:25;95399.94;;;21.24;73.29
56600;BME280;51832;48.152;11.530;2023-05-23T09:22:27;95403.34;;;21.30;73.12
56600;BME280;51832;48.152;11.530;2023-05-23T09:27:27;95410.66;;;21.43;72.93
56600;BME280;51832;48.152;11.530;2023-05-23T09:32:28;95417.81;;;21.29;72.77
56600;BME280;51832;48.152;11.530;2023-05-23T09:37:39;95408.94;;;21.66;71.31
56600;BME280;51832;48.152;11.530;2023-05-23T09:42:44;95411.75;;;21.75;71.15
56600;BME280;51832;48.152;11.530;2023-05-23T09:47:51;95412.31;;;21.39;72.66
56600;BME280;51832;48.152;11.530;2023-05-23T09:52:52;95410.25;;;21.12;73.10
56600;BME280;51832;48.152;11.530;2023-05-23T09:57:53;95409.47;;;21.49;71.91
56600;BME280;51832;48.152;11.530;2023-05-23T10:03:12;95411.22;;;21.59;71.51
56600;BME280;51832;48.152;11.530;2023-05-23T10:13:53;95413.78;;;21.64;72.07
56600;BME280;51832;48.152;11.530;2023-05-23T10:18:59;95416.63;;;21.54;71.65
56600;BME280;51832;48.152;11.530;2023-05-23T10:24:06;95404.00;;;21.73;70.78
56600;BME280;51832;48.152;11.530;2023-05-23T10:29:07;95402.03;;;21.79;70.23
56600;BME280;51832;48.152;11.530;2023-05-23T10:34:17;95403.31;;;21.68;71.22
56600;BME280;51832;48.152;11.530;2023-05-23T10:45:19;95395.06;;;21.96;67.44
56600;BME280;51832;48.152;11.530;2023-05-23T10:50:33;95383.50;;;22.56;65.40
56600;BME280;51832;48.152;11.530;2023-05-23T10:55:35;95400.72;;;22.82;64.21
56600;BME280;51832;48.152;11.530;2023-05-23T11:00:36;95381.66;;;23.20;62.35
56600;BME280;51832;48.152;11.530;2023-05-23T11:05:36;95397.22;;;22.95;61.29
56600;BME280;51832;48.152;11.530;2023-05-23T11:15:52;95385.22;;;22.79;60.61
56600;BME280;51832;48.152;11.530;2023-05-23T11:20:53;95378.69;;;23.44;59.63
56600;BME280;51832;48.152;11.530;2023-05-23T11:25:54;95367.78;;;23.85;57.63
56600;BME280;51832;48.152;11.530;2023-05-23T11:30:56;95362.09;;;23.86;57.22
56600;BME280;51832;48.152;11.530;2023-05-23T11:35:56;95358.88;;;24.06;56.24
56600;BME280;51832;48.152;11.530;2023-05-23T11:40:59;95358.31;;;24.18;55.82
56600;BME280;51832;48.152;11.530;2023-05-23T11:46:07;95360.84;;;24.15;56.19
56600;BME280;51832;48.152;11.530;2023-05-23T11:51:08;95339.38;;;24.89;54.98
56600;BME280;51832;48.152;11.530;2023-05-23T11:56:08;95350.38;;;24.13;56.16
56600;BME280;51832;48.152;11.530;2023-05-23T12:01:10;95344.63;;;23.97;57.13
56600;BME280;51832;48.152;11.530;2023-05-23T12:06:14;95355.59;;;24.09;56.60
56600;BME280;51832;48.152;11.530;2023-05-23T12:11:15;95343.13;;;24.62;55.68
56600;BME280;51832;48.152;11.530;2023-05-23T12:16:16;95339.13;;;24.99;54.52
56600;BME280;51832;48.152;11.530;2023-05-23T12:21:16;95335.63;;;25.15;53.41
56600;BME280;51832;48.152;11.530;2023-05-23T12:26:17;95347.06;;;25.30;53.22
56600;BME280;51832;48.152;11.530;2023-05-23T12:31:19;95345.31;;;25.17;53.47
56600;BME280;51832;48.152;11.530;2023-05-23T12:36:22;95352.75;;;25.02;54.43
56600;BME280;51832;48.152;11.530;2023-05-23T12:41:23;95359.41;;;24.48;54.65
56600;BME280;51832;48.152;11.530;2023-05-23T12:46:25;95348.25;;;24.24;54.09
56600;BME280;51832;48.152;11.530;2023-05-23T12:51:25;95349.91;;;25.07;52.47
56600;BME280;51832;48.152;11.530;2023-05-23T12:56:26;95352.13;;;24.97;54.63
56600;BME280;51832;48.152;11.530;2023-05-23T13:01:26;95356.25;;;25.46;53.24
56600;BME280;51832;48.152;11.530;2023-05-23T13:06:27;95354.16;;;25.95;50.81
56600;BME280;51832;48.152;11.530;2023-05-23T13:11:28;95359.03;;;26.10;50.07
56600;BME280;51832;48.152;11.530;2023-05-23T13:16:30;95362.88;;;25.57;50.65
56600;BME280;51832;48.152;11.530;2023-05-23T13:21:31;95358.16;;;25.37;49.97
56600;BME280;51832;48.152;11.530;2023-05-23T13:26:31;95342.44;;;24.87;49.83
56600;BME280;51832;48.152;11.530;2023-05-23T13:31:32;95349.44;;;25.40;49.54
56600;BME280;51832;48.152;11.530;2023-05-23T13:36:32;95336.91;;;25.78;46.93
56600;BME280;51832;48.152;11.530;2023-05-23T13:41:34;95346.72;;;25.74;46.73
56600;BME280;51832;48.152;11.530;2023-05-23T13:46:35;95335.97;;;25.31;48.51
56600;BME280;51832;48.152;11.530;2023-05-23T13:51:35;95324.09;;;25.24;48.77
56600;BME280;51832;48.152;11.530;2023-05-23T13:56:39;95338.84;;;25.26;47.57
56600;BME280;51832;48.152;11.530;2023-05-23T14:01:39;95350.06;;;25.63;46.27
56600;BME280;51832;48.152;11.530;2023-05-23T14:06:40;95352.47;;;25.64;47.09
56600;BME280;51832;48.152;11.530;2023-05-23T14:11:40;95340.16;;;26.01;45.76
56600;BME280;51832;48.152;11.530;2023-05-23T14:16:41;95344.34;;;25.81;45.35
56600;BME280;51832;48.152;11.530;2023-05-23T14:21:41;95336.91;;;25.70;46.38
56600;BME280;51832;48.152;11.530;2023-05-23T14:26:42;95336.75;;;25.66;45.79
56600;BME280;51832;48.152;11.530;2023-05-23T14:31:42;95351.66;;;25.21;47.82
56600;BME280;51832;48.152;11.530;2023-05-23T14:36:43;95338.66;;;25.83;46.66
56600;BME280;51832;48.152;11.530;2023-05-23T14:41:43;95338.34;;;25.50;46.59
56600;BME280;51832;48.152;11.530;2023-05-23T14:46:46;95333.75;;;26.23;45.26
56600;BME280;51832;48.152;11.530;2023-05-23T14:51:48;95352.09;;;25.92;45.47
56600;BME280;51832;48.152;11.530;2023-05-23T14:56:49;95360.19;;;25.57;46.82
56600;BME280;51832;48.152;11.530;2023-05-23T15:01:50;95364.97;;;25.26;47.43
56600;BME280;51832;48.152;11.530;2023-05-23T15:06:50;95361.78;;;25.06;47.63
56600;BME280;51832;48.152;11.530;2023-05-23T15:11:54;95354.44;;;24.81;48.63
56600;BME280;51832;48.152;11.530;2023-05-23T15:16:55;95364.72;;;24.79;48.47
56600;BME280;51832;48.152;11.530;2023-05-23T15:21:55;95366.31;;;24.89;48.24
56600;BME280;51832;48.152;11.530;2023-05-23T15:26:56;95367.44;;;24.39;48.22
56600;BME280;51832;48.152;11.530;2023-05-23T15:31:56;95364.72;;;24.31;49.22
56600;BME280;51832;48.152;11.530;2023-05-23T15:36:57;95367.66;;;24.60;47.71
56600;BME280;51832;48.152;11.530;2023-05-23T15:41:58;95375.66;;;24.34;47.73
56600;BME280;51832;48.152;11.530;2023-05-23T15:46:59;95381.63;;;24.00;47.75
56600;BME280;51832;48.152;11.530;2023-05-23T15:51:59;95378.03;;;24.36;46.42
56600;BME280;51832;48.152;11.530;2023-05-23T15:56:59;95376.09;;;24.28;45.63
56600;BME280;51832;48.152;11.530;2023-05-23T16:02:00;95387.91;;;25.06;44.24
56600;BME280;51832;48.152;11.530;2023-05-23T16:07:04;95383.66;;;25.57;48.50
56600;BME280;51832;48.152;11.530;2023-05-23T16:12:04;95392.19;;;25.07;43.04
56600;BME280;51832;48.152;11.530;2023-05-23T16:17:05;95396.94;;;25.19;45.01
56600;BME280;51832;48.152;11.530;2023-05-23T16:22:06;95399.69;;;24.70;45.51
56600;BME280;51832;48.152;11.530;2023-05-23T16:27:07;95400.03;;;24.86;45.62
56600;BME280;51832;48.152;11.530;2023-05-23T16:32:07;95410.50;;;24.48;45.95
56600;BME280;51832;48.152;11.530;2023-05-23T16:37:08;95403.00;;;24.67;46.54
56600;BME280;51832;48.152;11.530;2023-05-23T16:42:08;95395.41;;;24.69;46.98
56600;BME280;51832;48.152;11.530;2023-05-23T16:47:09;95399.03;;;24.25;46.65
56600;BME280;51832;48.152;11.530;2023-05-23T16:52:09;95405.56;;;24.81;47.15
56600;BME280;51832;48.152;11.530;2023-05-23T16:57:10;95410.47;;;23.86;47.78
56600;BME280;51832;48.152;11.530;2023-05-23T17:02:13;95401.88;;;24.06;52.91
56600;BME280;51832;48.152;11.530;2023-05-23T17:07:14;95413.66;;;24.19;54.44
56600;BME280;51832;48.152;11.530;2023-05-23T17:12:15;95418.41;;;24.22;48.94
56600;BME280;51832;48.152;11.530;2023-05-23T17:17:15;95406.75;;;23.73;50.61
56600;BME280;51832;48.152;11.530;2023-05-23T17:22:16;95416.25;;;23.80;48.68
56600;BME280;51832;48.152;11.530;2023-05-23T17:27:16;95427.03;;;24.02;55.21
56600;BME280;51832;48.152;11.530;2023-05-23T17:32:17;95425.38;;;23.70;50.64
56600;BME280;51832;48.152;11.530;2023-05-23T17:37:19;95424.44;;;23.97;47.88
56600;BME280;51832;48.152;11.530;2023-05-23T17:42:19;95431.38;;;23.89;50.04
56600;BME280;51832;48.152;11.530;2023-05-23T17:47:20;95428.97;;;23.65;50.28
56600;BME280;51832;48.152;11.530;2023-05-23T17:52:21;95433.66;;;24.58;47.60
56600;BME280;51832;48.152;11.530;2023-05-23T17:57:21;95443.16;;;24.64;51.78
56600;BME280;51832;48.152;11.530;2023-05-23T18:02:22;95445.72;;;23.85;50.60
56600;BME280;51832;48.152;11.530;2023-05-23T18:07:22;95445.03;;;23.79;45.92
56600;BME280;51832;48.152;11.530;2023-05-23T18:12:23;95450.28;;;23.62;49.42
56600;BME280;51832;48.152;11.530;2023-05-23T18:17:23;95461.94;;;23.57;51.35
56600;BME280;51832;48.152;11.530;2023-05-23T18:22:24;95462.72;;;23.58;49.02
56600;BME280;51832;48.152;11.530;2023-05-23T18:27:24;95457.81;;;24.18;45.87
56600;BME280;51832;48.152;11.530;2023-05-23T18:32:25;95468.63;;;24.04;49.29
56600;BME280;51832;48.152;11.530;2023-05-23T18:37:25;95467.22;;;24.29;47.71
56600;BME280;51832;48.152;11.530;2023-05-23T18:42:26;95472.59;;;24.29;46.00
56600;BME280;51832;48.152;11.530;2023-05-23T18:47:26;95471.19;;;24.63;48.54
56600;BME280;51832;48.152;11.530;2023-05-23T18:52:26;95488.56;;;24.26;45.41
56600;BME280;51832;48.152;11.530;2023-05-23T18:57:27;95491.63;;;23.97;44.72
56600;BME280;51832;48.152;11.530;2023-05-23T19:02:27;95495.97;;;23.34;44.92
56600;BME280;51832;48.152;11.530;2023-05-23T19:07:28;95500.06;;;23.18;45.41
56600;BME280;51832;48.152;11.530;2023-05-23T19:12:28;95508.53;;;22.98;46.38
56600;BME280;51832;48.152;11.530;2023-05-23T19:17:29;95523.22;;;22.87;46.75
56600;BME280;51832;48.152;11.530;2023-05-23T19:22:30;95527.94;;;22.62;47.59
56600;BME280;51832;48.152;11.530;2023-05-23T19:27:30;95534.41;;;22.61;47.86
56600;BME280;51832;48.152;11.530;2023-05-23T19:32:30;95537.94;;;22.11;49.47
56600;BME280;51832;48.152;11.530;2023-05-23T19:37:31;95543.59;;;22.55;58.57
56600;BME280;51832;48.152;11.530;2023-05-23T19:42:31;95530.44;;;22.73;49.17
56600;BME280;51832;48.152;11.530;2023-05-23T19:47:32;95540.03;;;22.79;52.30
56600;BME280;51832;48.152;11.530;2023-05-23T19:52:32;95545.03;;;22.53;49.39
56600;BME280;51832;48.152;11.530;2023-05-23T19:57:32;95556.72;;;21.87;51.30
56600;BME280;51832;48.152;11.530;2023-05-23T20:02:33;95550.06;;;21.66;51.97
56600;BME280;51832;48.152;11.530;2023-05-23T20:07:33;95558.81;;;21.52;52.08
56600;BME280;51832;48.152;11.530;2023-05-23T20:12:35;95561.56;;;21.47;52.55
56600;BME280;51832;48.152;11.530;2023-05-23T20:17:36;95557.13;;;21.38;52.57
56600;BME280;51832;48.152;11.530;2023-05-23T20:22:37;95562.97;;;21.82;52.10
56600;BME280;51832;48.152;11.530;2023-05-23T20:27:37;95567.84;;;21.99;50.96
56600;BME280;51832;48.152;11.530;2023-05-23T20:32:37;95572.50;;;21.51;52.38
56600;BME280;51832;48.152;11.530;2023-05-23T20:37:38;95582.22;;;21.66;52.57
56600;BME280;51832;48.152;11.530;2023-05-23T20:42:38;95587.84;;;21.45;52.88
56600;BME280;51832;48.152;11.530;2023-05-23T20:47:40;95586.56;;;21.38;52.94
56600;BME280;51832;48.152;11.530;2023-05-23T20:52:41;95590.94;;;21.52;52.74
56600;BME280;51832;48.152;11.530;2023-05-23T20:57:42;95585.38;;;21.25;54.31
56600;BME280;51832;48.152;11.530;2023-05-23T21:02:42;95591.03;;;21.23;54.74
56600;BME280;51832;48.152;11.530;2023-05-23T21:07:42;95596.06;;;21.49;53.85
56600;BME280;51832;48.152;11.530;2023-05-23T21:12:43;95591.22;;;21.03;54.96
56600;BME280;51832;48.152;11.530;2023-05-23T21:17:49;95596.75;;;20.88;55.88
56600;BME280;51832;48.152;11.530;2023-05-23T21:22:52;95595.66;;;20.89;56.87
56600;BME280;51832;48.152;11.530;2023-05-23T21:27:52;95609.44;;;20.72;57.19
56600;BME280;51832;48.152;11.530;2023-05-23T21:32:53;95599.94;;;20.61;57.32
56600;BME280;51832;48.152;11.530;2023-05-23T21:37:53;95614.81;;;20.33;58.69
56600;BME280;51832;48.152;11.530;2023-05-23T21:42:53;95623.19;;;20.21;59.51
56600;BME280;51832;48.152;11.530;2023-05-23T21:47:54;95622.88;;;20.28;59.43
56600;BME280;51832;48.152;11.530;2023-05-23T21:52:54;95622.59;;;19.91;60.63
56600;BME280;51832;48.152;11.530;2023-05-23T21:57:55;95630.97;;;20.18;60.02
56600;BME280;51832;48.152;11.530;2023-05-23T22:02:55;95644.00;;;20.24;61.08
56600;BME280;51832;48.152;11.530;2023-05-23T22:07:56;95630.78;;;20.04;61.32
56600;BME280;51832;48.152;11.530;2023-05-23T22:12:56;95643.53;;;20.17;60.79
56600;BME280;51832;48.152;11.530;2023-05-23T22:17:57;95644.94;;;20.05;61.33
56600;BME280;51832;48.152;11.530;2023-05-23T22:22:58;95648.44;;;20.00;62.50
56600;BME280;51832;48.152;11.530;2023-05-23T22:28:01;95645.09;;;19.69;62.90
56600;BME280;51832;48.152;11.530;2023-05-23T22:33:01;95651.72;;;19.82;63.53
56600;BME280;51832;48.152;11.530;2023-05-23T22:38:02;95651.84;;;20.11;61.25
56600;BME280;51832;48.152;11.530;2023-05-23T22:43:05;95652.31;;;19.69;63.26
56600;BME280;51832;48.152;11.530;2023-05-23T22:48:06;95645.94;;;19.65;64.67
56600;BME280;51832;48.152;11.530;2023-05-23T22:53:10;95647.94;;;19.24;65.13
56600;BME280;51832;48.152;11.530;2023-05-23T22:58:11;95645.00;;;19.20;64.68
56600;BME280;51832;48.152;11.530;2023-05-23T23:03:12;95641.31;;;18.96;65.51
56600;BME280;51832;48.152;11.530;2023-05-23T23:08:14;95640.97;;;19.28;64.51
56600;BME280;51832;48.152;11.530;2023-05-23T23:13:15;95644.22;;;19.09;65.54
56600;BME280;51832;48.152;11.530;2023-05-23T23:18:16;95637.59;;;18.97;65.61
56600;BME280;51832;48.152;11.530;2023-05-23T23:23:17;95635.66;;;19.17;64.98
56600;BME280;51832;48.152;11.530;2023-05-23T23:28:18;95626.09;;;19.01;63.85
56600;BME280;51832;48.152;11.530;2023-05-23T23:33:19;95636.00;;;18.60;66.16
56600;BME280;51832;48.152;11.530;2023-05-23T23:38:20;95641.59;;;18.99;65.00
56600;BME280;51832;48.152;11.530;2023-05-23T23:43:20;95640.78;;;18.94;64.33
56600;BME280;51832;48.152;11.530;2023-05-23T23:48:21;95637.88;;;18.60;65.43
56600;BME280;51832;48.152;11.530;2023-05-23T23:53:21;95639.19;;;18.37;66.10
56600;BME280;51832;48.152;11.530;2023-05-23T23:58:22;95631.72;;;18.49;65.79
